Hickory Grove, Louisiana
Current Conditions -  °F | °C
As of 10:53 PM on Monday 22 Dec 2014 (Local Time) from KESF Reporting Station
Overcast Overcast  
Wind Chill: 64°   Ceiling: 1600
Heat Index: 64°   Visibility: 10mi
Dew Point: 61°   Wind: 3mph
Humidity: 90%   Direction: 200°SSW
Pressure: 29.68"   Gusts: NA
Location:  31.3606°N, 92.2142°W
Report Text: KESF 230453Z AUTO 20003KT 10SM OVC016 18/16 A2968 RMK AO2 SLP049 T01780161
Loading
Personal Weather Stations






























Interactive Weather Map New forecast layout! Learn more

10-Day Weather Forecast

Advertisements
Track Severe Weather on mobile